createdAt,value
2023-03-19T00:02:24.455Z,14.44
2023-03-19T00:07:26.047Z,14.38
2023-03-19T00:12:27.440Z,14.28
2023-03-19T00:17:28.823Z,14.32
2023-03-19T00:22:30.202Z,14.29
2023-03-19T00:27:31.513Z,14.23
2023-03-19T00:32:34.002Z,14.15
2023-03-19T00:37:36.274Z,14.15
2023-03-19T00:42:37.631Z,14.11
2023-03-19T00:47:39.017Z,13.99
2023-03-19T00:52:40.987Z,14.02
2023-03-19T00:57:42.351Z,13.93
2023-03-19T01:02:43.711Z,13.90
2023-03-19T01:07:45.362Z,13.88
2023-03-19T01:12:47.371Z,13.81
2023-03-19T01:17:48.812Z,13.70
2023-03-19T01:22:50.667Z,13.69
2023-03-19T01:27:52.422Z,13.62
2023-03-19T01:32:53.898Z,13.61
2023-03-19T01:37:55.314Z,13.59
2023-03-19T01:43:18.521Z,13.51
2023-03-19T01:48:25.877Z,13.61
2023-03-19T01:53:33.683Z,13.62
2023-03-19T01:58:35.399Z,13.59
2023-03-19T02:03:37.843Z,13.57
2023-03-19T02:08:41.448Z,13.54
2023-03-19T02:13:43.568Z,13.60
2023-03-19T02:18:47.320Z,13.57
2023-03-19T02:24:26.208Z,13.57
2023-03-19T02:29:27.531Z,13.60
2023-03-19T02:34:39.051Z,13.58
2023-03-19T02:39:54.602Z,13.53
2023-03-19T02:44:56.478Z,13.56
2023-03-19T02:49:58.063Z,13.52
2023-03-19T02:54:59.560Z,13.47
2023-03-19T03:00:01.016Z,13.43
2023-03-19T03:05:02.444Z,13.39
2023-03-19T03:10:04.023Z,13.29
2023-03-19T03:15:06.833Z,13.24
2023-03-19T03:20:10.630Z,13.26
2023-03-19T03:25:12.954Z,13.17
2023-03-19T03:30:15.932Z,13.08
2023-03-19T03:35:21.873Z,12.94
2023-03-19T03:40:23.326Z,12.94
2023-03-19T03:45:24.747Z,12.84
2023-03-19T03:50:26.457Z,12.84
2023-03-19T03:55:28.249Z,12.79
2023-03-19T04:00:29.748Z,12.71
2023-03-19T04:05:31.367Z,12.67
2023-03-19T04:10:35.626Z,12.72
2023-03-19T04:15:37.157Z,12.69
2023-03-19T04:20:38.570Z,12.70
2023-03-19T04:25:41.185Z,12.66
2023-03-19T04:30:43.710Z,12.63
2023-03-19T04:35:45.115Z,12.62
2023-03-19T04:40:47.770Z,12.50
2023-03-19T04:45:49.463Z,12.42
2023-03-19T04:50:53.110Z,12.49
2023-03-19T04:55:54.678Z,12.46
2023-03-19T05:00:55.998Z,12.41
2023-03-19T05:05:57.670Z,12.29
2023-03-19T05:10:59.087Z,12.32
2023-03-19T05:16:00.689Z,12.30
2023-03-19T05:21:02.450Z,12.19
2023-03-19T05:26:04.233Z,12.14
2023-03-19T05:31:06.356Z,12.17
2023-03-19T05:36:08.070Z,12.14
2023-03-19T05:41:09.545Z,12.11
2023-03-19T05:46:11.425Z,12.02
2023-03-19T05:51:12.823Z,11.99
2023-03-19T05:56:14.257Z,11.93
2023-03-19T06:01:16.167Z,11.93
2023-03-19T06:06:17.657Z,11.99
2023-03-19T06:11:19.079Z,12.05
2023-03-19T06:16:20.833Z,12.03
2023-03-19T06:21:22.162Z,12.05
2023-03-19T06:26:24.756Z,12.05
2023-03-19T06:31:27.714Z,12.00
2023-03-19T06:36:29.741Z,12.03
2023-03-19T06:41:31.195Z,12.08
2023-03-19T06:46:32.558Z,12.15
2023-03-19T06:51:33.962Z,12.14
2023-03-19T06:56:35.439Z,12.30
2023-03-19T07:01:37.336Z,12.32
2023-03-19T07:06:38.749Z,12.36
2023-03-19T07:11:40.055Z,12.35
2023-03-19T07:16:41.544Z,12.49
2023-03-19T07:21:43.142Z,12.58
2023-03-19T07:26:44.486Z,12.72
2023-03-19T07:31:46.009Z,12.91
2023-03-19T07:36:47.383Z,13.10
2023-03-19T07:41:49.408Z,13.23
2023-03-19T07:46:50.953Z,13.38
2023-03-19T07:51:52.443Z,13.47
2023-03-19T07:56:55.515Z,13.46
2023-03-19T08:01:57.041Z,13.50
2023-03-19T08:06:58.440Z,13.53
2023-03-19T08:11:59.752Z,13.64
2023-03-19T08:17:01.144Z,13.75
2023-03-19T08:22:02.561Z,13.84
2023-03-19T08:27:04.045Z,13.88
2023-03-19T08:32:06.112Z,14.06
2023-03-19T08:37:07.562Z,14.09
2023-03-19T08:42:08.963Z,14.21
2023-03-19T08:47:11.256Z,14.49
2023-03-19T08:52:13.308Z,14.71
2023-03-19T08:57:14.716Z,14.83
2023-03-19T09:02:16.266Z,14.83
2023-03-19T09:07:17.928Z,14.91
2023-03-19T09:12:19.408Z,15.26
2023-03-19T09:17:20.862Z,15.62
2023-03-19T09:22:22.225Z,16.07
2023-03-19T09:27:24.078Z,16.35
2023-03-19T09:32:25.746Z,16.65
2023-03-19T09:37:27.209Z,17.50
2023-03-19T09:42:45.115Z,18.37
2023-03-19T09:47:51.503Z,18.38
2023-03-19T09:53:04.000Z,17.71
2023-03-19T09:58:31.684Z,17.52
2023-03-19T10:03:35.999Z,17.52
2023-03-19T10:08:59.354Z,18.63
2023-03-19T10:14:17.098Z,19.50
2023-03-19T10:19:23.410Z,19.84
2023-03-19T10:24:35.179Z,19.60
2023-03-19T10:29:37.494Z,18.69
2023-03-19T10:34:49.082Z,18.23
2023-03-19T10:39:52.456Z,18.68
2023-03-19T10:45:01.818Z,19.12
2023-03-19T10:50:03.955Z,19.74
2023-03-19T10:55:24.189Z,19.44
2023-03-19T11:00:28.850Z,19.14
2023-03-19T11:05:33.939Z,18.28
2023-03-19T11:10:36.317Z,18.09
2023-03-19T11:15:39.249Z,18.08
2023-03-19T11:20:41.431Z,18.48
2023-03-19T11:25:50.387Z,18.76
2023-03-19T11:31:25.773Z,20.82
2023-03-19T11:36:54.666Z,22.35
2023-03-19T11:42:30.236Z,23.40
2023-03-19T11:47:43.449Z,21.93
2023-03-19T11:53:03.714Z,25.20
2023-03-19T11:58:31.251Z,25.34
2023-03-19T12:03:51.102Z,22.66
2023-03-19T12:09:02.460Z,24.10
2023-03-19T12:14:35.815Z,25.39
2023-03-19T12:20:03.248Z,23.19
2023-03-19T12:25:22.482Z,21.45
2023-03-19T12:30:30.070Z,20.18
2023-03-19T12:35:35.410Z,19.47
2023-03-19T12:40:48.554Z,19.13
2023-03-19T12:45:57.852Z,19.14
2023-03-19T12:51:05.611Z,19.82
2023-03-19T12:56:14.104Z,19.36
2023-03-19T13:01:29.739Z,20.28
2023-03-19T13:06:37.063Z,19.51
2023-03-19T13:11:47.905Z,18.95
2023-03-19T13:17:15.591Z,18.51
2023-03-19T13:22:21.612Z,18.24
2023-03-19T13:27:35.686Z,17.98
2023-03-19T13:32:48.039Z,17.72
2023-03-19T13:37:57.659Z,17.34
2023-03-19T13:42:59.277Z,17.19
2023-03-19T13:48:26.755Z,17.04
2023-03-19T13:53:32.299Z,17.08
2023-03-19T13:58:55.000Z,17.31
2023-03-19T14:04:02.867Z,18.13
2023-03-19T14:09:06.919Z,17.95
2023-03-19T14:14:14.863Z,17.49
2023-03-19T14:19:20.953Z,17.06
2023-03-19T14:29:53.678Z,16.56
2023-03-19T14:34:55.620Z,16.59
2023-03-19T14:40:16.268Z,16.32
2023-03-19T14:45:41.769Z,16.13
2023-03-19T14:51:17.305Z,16.03
2023-03-19T14:56:26.671Z,16.00
2023-03-19T15:01:28.445Z,15.90
2023-03-19T15:06:34.860Z,15.93
2023-03-19T15:11:47.977Z,15.68
2023-03-19T15:17:20.671Z,15.71
2023-03-19T15:22:35.028Z,15.73
2023-03-19T15:27:36.765Z,15.79
2023-03-19T15:32:59.448Z,15.89
2023-03-19T15:38:09.400Z,16.00
2023-03-19T15:43:12.804Z,16.15
2023-03-19T15:48:28.491Z,16.28
2023-03-19T15:53:34.474Z,16.44
2023-03-19T15:58:44.230Z,16.55
2023-03-19T16:04:07.187Z,16.50
2023-03-19T16:09:27.096Z,16.39
2023-03-19T16:14:41.062Z,16.18
2023-03-19T16:19:58.122Z,16.25
2023-03-19T16:25:01.962Z,16.04
2023-03-19T16:30:13.645Z,15.98
2023-03-19T16:35:19.839Z,15.89
2023-03-19T16:40:21.321Z,15.94
2023-03-19T16:45:31.488Z,15.83
2023-03-19T16:50:41.108Z,15.58
2023-03-19T16:55:42.606Z,15.44
2023-03-19T17:00:45.618Z,15.24
2023-03-19T17:05:48.034Z,15.06
2023-03-19T17:10:53.566Z,15.05
2023-03-19T17:16:07.115Z,15.02
2023-03-19T17:21:11.806Z,14.93
2023-03-19T17:26:19.503Z,14.85
2023-03-19T17:31:25.206Z,14.85
2023-03-19T17:36:26.671Z,14.77
2023-03-19T17:41:30.280Z,14.66
2023-03-19T17:46:36.153Z,14.66
2023-03-19T17:51:37.628Z,14.50
2023-03-19T17:56:41.399Z,14.50
2023-03-19T18:01:43.566Z,14.39
2023-03-19T18:06:49.639Z,14.33
2023-03-19T18:11:51.762Z,14.30
2023-03-19T18:16:53.304Z,14.23
2023-03-19T18:21:54.772Z,14.19
2023-03-19T18:26:56.189Z,14.11
2023-03-19T18:32:03.012Z,14.12
2023-03-19T18:37:04.810Z,14.09
2023-03-19T18:42:06.318Z,14.01
2023-03-19T18:47:14.880Z,14.01
2023-03-19T18:52:19.282Z,13.95
2023-03-19T18:57:21.149Z,13.93
2023-03-19T19:02:32.247Z,13.81
2023-03-19T19:07:34.074Z,13.70
2023-03-19T19:12:38.449Z,13.71
2023-03-19T19:17:41.733Z,13.67
2023-03-19T19:22:43.512Z,13.66
2023-03-19T19:27:47.143Z,13.63
2023-03-19T19:32:49.157Z,13.65
2023-03-19T19:37:51.456Z,13.60
2023-03-19T19:42:53.851Z,13.55
2023-03-19T19:47:56.501Z,13.61
2023-03-19T19:52:58.709Z,13.68
2023-03-19T19:58:01.536Z,13.65
2023-03-19T20:03:02.926Z,13.71
2023-03-19T20:08:04.434Z,13.69
2023-03-19T20:13:05.835Z,13.69
2023-03-19T20:18:07.337Z,13.66
2023-03-19T20:23:10.142Z,13.49
2023-03-19T20:28:34.106Z,13.33
2023-03-19T20:33:37.293Z,13.40
2023-03-19T20:38:38.677Z,13.39
2023-03-19T20:43:40.267Z,13.38
2023-03-19T20:48:41.918Z,13.39
2023-03-19T20:53:43.296Z,13.42
2023-03-19T20:58:45.704Z,13.50
2023-03-19T21:03:47.068Z,13.51
2023-03-19T21:08:57.134Z,13.50
2023-03-19T21:13:58.979Z,13.41
2023-03-19T21:19:00.426Z,13.36
2023-03-19T21:24:13.232Z,13.32
2023-03-19T21:29:21.201Z,13.35
2023-03-19T21:34:22.674Z,13.30
2023-03-19T21:39:24.042Z,13.26
2023-03-19T21:44:29.591Z,13.23
2023-03-19T21:49:31.290Z,13.15
2023-03-19T21:54:32.618Z,13.13
2023-03-19T21:59:33.954Z,13.04
2023-03-19T22:04:35.642Z,13.07
2023-03-19T22:09:37.384Z,13.13
2023-03-19T22:14:40.154Z,13.11
2023-03-19T22:19:41.955Z,13.07
2023-03-19T22:24:43.258Z,12.97
2023-03-19T22:29:45.933Z,12.91
2023-03-19T22:34:47.366Z,12.73
2023-03-19T22:39:48.985Z,12.66
2023-03-19T22:44:50.665Z,12.63
2023-03-19T22:49:52.752Z,12.56
2023-03-19T22:54:54.076Z,12.50
2023-03-19T22:59:55.385Z,12.34
2023-03-19T23:04:57.042Z,12.36
2023-03-19T23:10:00.555Z,12.32
2023-03-19T23:15:02.445Z,12.23
2023-03-19T23:20:16.051Z,12.29
2023-03-19T23:25:25.386Z,12.18
2023-03-19T23:30:33.573Z,12.20
2023-03-19T23:35:35.279Z,12.22
2023-03-19T23:40:38.639Z,12.18
2023-03-19T23:45:42.834Z,12.20
2023-03-19T23:50:46.939Z,12.10
2023-03-19T23:55:51.776Z,12.08
